Главная страница
METAR-TAF:

METAR-TAF

Аэропорты :

Бамако, Мали

широта: 12-32N, долгота: 007-57W, высота над уровнем моря: 380 м

Текущие метеонаблюдения

Эта сводка был подготовлена 41 минут назад, в 19:00 UTC
Ветер 7 Узел от восточно-северо-восточный
Температура 33°C
Влажность 10%
Давление 1012 hPa
Видимость: 8000 м

METAR: GABS 281900Z 06007KT 8000 NSC 33/M03 Q1012 NOSIG

Время: 19:41 (19:41 UTC)

Прогноз

Эта сводка был подготовлена 2 часа и 41 минут назад, в 17:00 UTC
Прогноз действительный с 28-го 18 UTC до 29-го 24 UTC
Ветер 5 Узел от восточный с порывами до 15 Узел
Видимость: 8000 м
Вероятность 40% :
временами
С 29-го 06 UTC до 29-го 16 UTC
Видимость: 4000 м
пыль, взвешенная над обширной территорией

TAF: GABS 281700Z 2818/2924 08005G15KT 8000 NSC PROB40 TEMPO 2906/2916 4000 DU

Метеонаблюдения и прогнозы для более 4000 аэропортов (сводки METAR и TAF).

Имеющиеся станции представлены на карте желтыми и красными точками.

Чтобы увидеть название станции, наведите на нее мышь.

Затем щелкните, чтобы увидеть метеонаблюдения и метеопрогнозы.

Управление картой: чтобы увеличить масштаб, щелкните зеленые кнопки с черным крестиком; чтобы уменьшить масштаб, щелкните зеленую кнопку с тире; для просмотра соседних карт щелкайте зеленые стрелки.


METAR-TAF: